Wind van: 18-01-2018 12:59 tot: 13:59 waarschuwing voor: Wind niveau: Oranje info button
nederlands:
Zeer tijdelijk verwachten we nog rukwinden tussen 85 en 110 km/h of lokaal iets meer, met de zwaarste rukwinden in het noordwesten, het noorden en het noordoosten van het land. Na de middag wordt het duidelijk minder onstuimig vanaf het westen.

français:
Nous prévoyons temporairement encore des rafales entre 85 et 110 km/h ou très localement un peu plus. Les pointes de vent les plus élevées concerneront le nord-ouest, le nord et le nord-est du pays. L'après-midi, le temps deviendra moins agité à partir de l'ouest. 

metar rapporten vliegvelden

   
EBAW - Antwerp
gewijzigd: 18-01-2018 12:50
grotendeels bewolkt  
grotendeels bewolkt  
   wind: wnw 40,7 km/h<br />Gust to 40,7 km/h
wind: wnw 40,7 km/h
Gust to 40,7 km/h
temperatuur: 7°C
voelt als: 2°C
dauwpunt: 1°C
vochtigheid: 66%
barometer: 1001 hPa
bewolking: grotendeels bewolkt
zicht: meer dan 10 km
bewolking: grotendeels bewolkt 3000 ft
EBAW 181150Z 29022G32KT 9999 BKN030 07/01 Q1001 TEMPO 25025G40KT
EBLG - Liège
gewijzigd: 18-01-2018 12:50
gedeeltelijk bewolkt  
gedeeltelijk bewolkt  
   wind: westen 33,3 km/h<br />Gust to 33,3 km/h
wind: westen 33,3 km/h
Gust to 33,3 km/h
temperatuur: 7°C
voelt als: 2°C
dauwpunt: 1°C
vochtigheid: 66%
barometer: 1000 hPa
bewolking: gedeeltelijk bewolkt
zicht: meer dan 10 km
bewolking: licht bewolkt 2600 ft,
gedeeltelijk bewolkt 4500 ft
EBLG 181150Z 28018G31KT 9999 FEW026 SCT045 07/01 Q1000 TEMPO 27030G45KT
EBCV - Mons/Bergen
gewijzigd: 18-01-2018 12:55
grotendeels bewolkt  
grotendeels bewolkt  
   wind: westen 35,2 km/h
wind: westen 35,2 km/h
temperatuur: 8°C
voelt als: 4°C
dauwpunt: 1°C
vochtigheid: 62%
barometer: 1003 hPa
bewolking: grotendeels bewolkt
zicht: meer dan 10 km
bewolking: grotendeels bewolkt 3900 ft
EBCV 181155Z AUTO 28019KT 9999 BKN039/// 08/01 Q1003 BLU
EHBK - Maastricht
gewijzigd: 18-01-2018 12:55
grotendeels bewolkt  
grotendeels bewolkt  
   wind: westen 35,2 km/h<br />Gust to 35,2 km/h
wind: westen 35,2 km/h
Gust to 35,2 km/h
temperatuur: 7°C
voelt als: 2°C
dauwpunt: 0°C
vochtigheid: 61%
barometer: 999 hPa
bewolking: grotendeels bewolkt
zicht: meer dan 10 km
bewolking: licht bewolkt 3300 ft,
gedeeltelijk bewolkt 3800 ft,
grotendeels bewolkt 4300 ft
EHBK 181155Z AUTO 28019G36KT 230V330 9999 FEW033 SCT038 BKN043 07/00 Q0999 NOSIG
ELLX - Luxemburg
gewijzigd: 18-01-2018 12:50
licht bewolkt  
licht bewolkt  
   wind: westen 51,9 km/h<br />Gust to 51,9 km/h
wind: westen 51,9 km/h
Gust to 51,9 km/h
temperatuur: 9°C
voelt als: 4°C
dauwpunt: 3°C
vochtigheid: 66%
barometer: 1001 hPa
bewolking: licht bewolkt
zicht: meer dan 10 km
bewolking: licht bewolkt 1900 ft
ELLX 181150Z 27028G40KT 9999 FEW019 09/03 Q1001 TEMPO 25025G45KT
EBOS - Oostende
gewijzigd: 18-01-2018 12:50
gedeeltelijk bewolkt  
gedeeltelijk bewolkt  
   wind: westen 40,7 km/h
wind: westen 40,7 km/h
temperatuur: 8°C
voelt als: 3°C
dauwpunt: 2°C
vochtigheid: 66%
barometer: 1002 hPa
bewolking: gedeeltelijk bewolkt
zicht: meer dan 10 km
bewolking: licht bewolkt 2300 ft,
gedeeltelijk bewolkt 3400 ft
EBOS 181150Z 28022KT 9999 FEW023 SCT034 08/02 Q1002 TEMPO 28025G35KT

script ontwikkeld door  Saratoga-weather.org aangepast voor de template door  Weerstation Leuven